Portada
METAR-TAF:

METAR-TAF

Aeropuertos :

Tivat, Montenegro

latitud: 42-24N, longitud: 018-44E, altitud: 5 m

Observación

El informe se hizo hace 40 minutos, a las 06:30 UTC
Viento 1 kt con dirección variable
Temperatura 5°C
Humedad 87%
Presión 1031 hPa
Visibilidad 10 km o más
sin nubes por debajo de 1500 m y sin presencia de cumulonimbus.

METAR: LYTV 250630Z VRB01KT CAVOK 05/03 Q1031 NOSIG

Hora: 08:10 (07:10 UTC)

Pronóstico

El informe se hizo hace 2 horas y 10 minutos, a las 05:00 UTC
Pronóstico válido del 25 a las 06 UTC al 26 a las 06 UTC
Viento 5 kt del suroeste
Visibilidad 10 km o más
sin nubes por debajo de 1500 m y sin presencia de cumulonimbus.

TAF: LYTV 250500Z 2506/2606 22005KT CAVOK TX18/2513Z TN04/2605Z

Observaciones y pronósticos meteorológicos de más de 4000 aeropuertos (mensajes METAR y TAF).

Los puntos amarillos y rojos representan las estaciones disponibles.

Ponga el ratón en el punto deseado para ver el nombre de la estación.

Haga clic para ver las observaciones y los pronósticos meteorológicos.

Para cambiar el mapa : haga clic en los botones verdes con una cruz de color negro para hacer un zoom, en el botón verde con un guión para alejar o en las flechas verdes para mapas adyacentes.


METAR-TAF: